sensor_id;sensor_type;location;lat;lon;timestamp;temperature;humidity
14705;DHT22;7442;50.840;3.396;2023-01-29T00:02:41;20.60;39.50
14705;DHT22;7442;50.840;3.396;2023-01-29T00:05:27;20.50;39.50
14705;DHT22;7442;50.840;3.396;2023-01-29T00:08:14;20.50;39.50
14705;DHT22;7442;50.840;3.396;2023-01-29T00:11:03;20.60;39.30
14705;DHT22;7442;50.840;3.396;2023-01-29T00:13:51;20.60;39.20
14705;DHT22;7442;50.840;3.396;2023-01-29T00:16:38;20.70;39.20
14705;DHT22;7442;50.840;3.396;2023-01-29T00:19:24;20.70;39.10
14705;DHT22;7442;50.840;3.396;2023-01-29T00:22:11;20.80;38.40
14705;DHT22;7442;50.840;3.396;2023-01-29T00:24:57;20.90;38.70
14705;DHT22;7442;50.840;3.396;2023-01-29T00:27:44;20.80;38.60
14705;DHT22;7442;50.840;3.396;2023-01-29T00:30:32;20.80;38.60
14705;DHT22;7442;50.840;3.396;2023-01-29T00:33:19;21.00;38.50
14705;DHT22;7442;50.840;3.396;2023-01-29T00:36:07;21.00;38.40
14705;DHT22;7442;50.840;3.396;2023-01-29T00:38:58;21.00;38.40
14705;DHT22;7442;50.840;3.396;2023-01-29T00:41:46;21.10;38.20
14705;DHT22;7442;50.840;3.396;2023-01-29T00:44:51;21.00;38.20
14705;DHT22;7442;50.840;3.396;2023-01-29T00:47:43;21.00;38.20
14705;DHT22;7442;50.840;3.396;2023-01-29T00:50:29;20.90;38.70
14705;DHT22;7442;50.840;3.396;2023-01-29T00:53:16;21.10;38.10
14705;DHT22;7442;50.840;3.396;2023-01-29T00:56:02;21.10;38.20
14705;DHT22;7442;50.840;3.396;2023-01-29T00:58:48;21.00;38.20
14705;DHT22;7442;50.840;3.396;2023-01-29T01:01:35;20.90;38.30
14705;DHT22;7442;50.840;3.396;2023-01-29T01:04:39;20.90;38.40
14705;DHT22;7442;50.840;3.396;2023-01-29T01:07:26;20.80;38.40
14705;DHT22;7442;50.840;3.396;2023-01-29T01:10:15;20.90;38.40
14705;DHT22;7442;50.840;3.396;2023-01-29T01:13:15;20.90;38.30
14705;DHT22;7442;50.840;3.396;2023-01-29T01:16:01;20.90;38.30
14705;DHT22;7442;50.840;3.396;2023-01-29T01:18:48;21.00;38.20
14705;DHT22;7442;50.840;3.396;2023-01-29T01:21:34;21.00;38.20
14705;DHT22;7442;50.840;3.396;2023-01-29T01:24:20;21.10;38.10
14705;DHT22;7442;50.840;3.396;2023-01-29T01:27:07;21.10;38.10
14705;DHT22;7442;50.840;3.396;2023-01-29T01:29:54;21.20;37.90
14705;DHT22;7442;50.840;3.396;2023-01-29T01:32:41;21.30;37.70
14705;DHT22;7442;50.840;3.396;2023-01-29T01:35:27;21.30;37.80
14705;DHT22;7442;50.840;3.396;2023-01-29T01:38:16;21.20;37.70
14705;DHT22;7442;50.840;3.396;2023-01-29T01:41:07;21.20;37.60
14705;DHT22;7442;50.840;3.396;2023-01-29T01:44:03;21.20;37.70
14705;DHT22;7442;50.840;3.396;2023-01-29T01:46:46;21.30;37.70
14705;DHT22;7442;50.840;3.396;2023-01-29T01:49:32;21.30;37.70
14705;DHT22;7442;50.840;3.396;2023-01-29T01:52:20;21.20;37.60
14705;DHT22;7442;50.840;3.396;2023-01-29T01:55:08;21.30;37.60
14705;DHT22;7442;50.840;3.396;2023-01-29T01:58:03;21.30;37.70
14705;DHT22;7442;50.840;3.396;2023-01-29T02:00:45;21.10;37.80
14705;DHT22;7442;50.840;3.396;2023-01-29T02:03:37;21.10;37.90
14705;DHT22;7442;50.840;3.396;2023-01-29T02:06:39;21.10;38.00
14705;DHT22;7442;50.840;3.396;2023-01-29T02:09:48;21.10;37.90
14705;DHT22;7442;50.840;3.396;2023-01-29T02:12:33;21.10;37.90
14705;DHT22;7442;50.840;3.396;2023-01-29T02:15:21;21.10;37.90
14705;DHT22;7442;50.840;3.396;2023-01-29T02:18:08;21.10;37.90
14705;DHT22;7442;50.840;3.396;2023-01-29T02:21:19;21.10;37.80
14705;DHT22;7442;50.840;3.396;2023-01-29T02:27:33;21.30;37.70
14705;DHT22;7442;50.840;3.396;2023-01-29T02:30:30;21.30;37.60
14705;DHT22;7442;50.840;3.396;2023-01-29T02:33:20;21.30;37.40
14705;DHT22;7442;50.840;3.396;2023-01-29T02:42:12;21.40;37.30
14705;DHT22;7442;50.840;3.396;2023-01-29T02:45:04;21.40;37.40
14705;DHT22;7442;50.840;3.396;2023-01-29T02:47:59;21.40;37.30
14705;DHT22;7442;50.840;3.396;2023-01-29T02:50:57;21.30;37.40
14705;DHT22;7442;50.840;3.396;2023-01-29T02:56:50;21.30;37.60
14705;DHT22;7442;50.840;3.396;2023-01-29T02:59:41;21.20;37.70
14705;DHT22;7442;50.840;3.396;2023-01-29T03:02:42;21.20;37.80
14705;DHT22;7442;50.840;3.396;2023-01-29T03:08:27;21.20;37.80
14705;DHT22;7442;50.840;3.396;2023-01-29T03:11:15;21.20;37.70
14705;DHT22;7442;50.840;3.396;2023-01-29T03:14:08;21.20;37.70
14705;DHT22;7442;50.840;3.396;2023-01-29T03:16:56;21.20;37.60
14705;DHT22;7442;50.840;3.396;2023-01-29T03:19:44;21.30;37.70
14705;DHT22;7442;50.840;3.396;2023-01-29T03:22:32;21.30;37.60
14705;DHT22;7442;50.840;3.396;2023-01-29T03:25:20;21.30;37.40
14705;DHT22;7442;50.840;3.396;2023-01-29T03:28:27;21.30;37.50
14705;DHT22;7442;50.840;3.396;2023-01-29T03:31:33;21.40;37.40
14705;DHT22;7442;50.840;3.396;2023-01-29T03:34:42;21.60;37.10
14705;DHT22;7442;50.840;3.396;2023-01-29T03:37:46;21.50;37.10
14705;DHT22;7442;50.840;3.396;2023-01-29T03:40:41;21.40;37.20
14705;DHT22;7442;50.840;3.396;2023-01-29T03:43:44;21.50;37.20
14705;DHT22;7442;50.840;3.396;2023-01-29T03:52:42;21.40;37.90
14705;DHT22;7442;50.840;3.396;2023-01-29T03:58:40;21.50;37.20
14705;DHT22;7442;50.840;3.396;2023-01-29T04:01:54;21.40;37.30
14705;DHT22;7442;50.840;3.396;2023-01-29T04:04:37;21.40;37.50
14705;DHT22;7442;50.840;3.396;2023-01-29T04:07:27;21.30;37.50
14705;DHT22;7442;50.840;3.396;2023-01-29T04:10:20;21.20;37.50
14705;DHT22;7442;50.840;3.396;2023-01-29T04:13:09;21.20;37.50
14705;DHT22;7442;50.840;3.396;2023-01-29T04:15:58;21.20;37.80
14705;DHT22;7442;50.840;3.396;2023-01-29T04:18:46;21.10;37.90
14705;DHT22;7442;50.840;3.396;2023-01-29T04:21:34;21.00;38.00
14705;DHT22;7442;50.840;3.396;2023-01-29T04:24:21;21.10;37.90
14705;DHT22;7442;50.840;3.396;2023-01-29T04:27:21;21.10;38.00
14705;DHT22;7442;50.840;3.396;2023-01-29T04:30:22;21.10;38.00
14705;DHT22;7442;50.840;3.396;2023-01-29T04:33:16;21.00;38.10
14705;DHT22;7442;50.840;3.396;2023-01-29T04:36:13;21.00;38.10
14705;DHT22;7442;50.840;3.396;2023-01-29T04:39:19;21.00;38.20
14705;DHT22;7442;50.840;3.396;2023-01-29T04:45:19;21.00;38.10
14705;DHT22;7442;50.840;3.396;2023-01-29T04:48:23;20.90;38.20
14705;DHT22;7442;50.840;3.396;2023-01-29T04:51:12;20.90;38.40
14705;DHT22;7442;50.840;3.396;2023-01-29T04:54:15;21.00;38.20
14705;DHT22;7442;50.840;3.396;2023-01-29T04:57:13;21.10;38.20
14705;DHT22;7442;50.840;3.396;2023-01-29T05:00:08;21.10;38.20
14705;DHT22;7442;50.840;3.396;2023-01-29T05:02:56;21.00;38.20
14705;DHT22;7442;50.840;3.396;2023-01-29T05:05:45;21.00;38.30
14705;DHT22;7442;50.840;3.396;2023-01-29T05:08:34;21.00;38.20
14705;DHT22;7442;50.840;3.396;2023-01-29T05:11:23;21.00;38.20
14705;DHT22;7442;50.840;3.396;2023-01-29T05:14:10;21.10;38.20
14705;DHT22;7442;50.840;3.396;2023-01-29T05:17:02;21.00;38.20
14705;DHT22;7442;50.840;3.396;2023-01-29T05:19:48;21.10;38.10
14705;DHT22;7442;50.840;3.396;2023-01-29T05:22:37;21.20;38.00
14705;DHT22;7442;50.840;3.396;2023-01-29T05:25:27;21.10;38.10
14705;DHT22;7442;50.840;3.396;2023-01-29T05:28:14;21.10;38.10
14705;DHT22;7442;50.840;3.396;2023-01-29T05:31:03;21.10;38.20
14705;DHT22;7442;50.840;3.396;2023-01-29T05:33:49;21.10;38.10
14705;DHT22;7442;50.840;3.396;2023-01-29T05:36:36;21.10;38.00
14705;DHT22;7442;50.840;3.396;2023-01-29T05:39:22;21.10;38.10
14705;DHT22;7442;50.840;3.396;2023-01-29T05:42:08;21.20;38.10
14705;DHT22;7442;50.840;3.396;2023-01-29T05:44:55;21.20;37.90
14705;DHT22;7442;50.840;3.396;2023-01-29T05:47:41;21.20;37.80
14705;DHT22;7442;50.840;3.396;2023-01-29T05:50:27;21.20;38.60
14705;DHT22;7442;50.840;3.396;2023-01-29T05:53:14;21.20;37.90
14705;DHT22;7442;50.840;3.396;2023-01-29T05:56:02;21.30;37.80
14705;DHT22;7442;50.840;3.396;2023-01-29T05:58:48;21.40;37.70
14705;DHT22;7442;50.840;3.396;2023-01-29T06:01:34;21.30;37.70
14705;DHT22;7442;50.840;3.396;2023-01-29T06:04:21;21.40;37.80
14705;DHT22;7442;50.840;3.396;2023-01-29T06:07:07;21.40;37.70
14705;DHT22;7442;50.840;3.396;2023-01-29T06:09:54;21.40;37.70
14705;DHT22;7442;50.840;3.396;2023-01-29T06:12:42;21.40;37.80
14705;DHT22;7442;50.840;3.396;2023-01-29T06:15:28;21.30;37.80
14705;DHT22;7442;50.840;3.396;2023-01-29T06:18:15;21.30;37.80
14705;DHT22;7442;50.840;3.396;2023-01-29T06:21:03;21.20;38.40
14705;DHT22;7442;50.840;3.396;2023-01-29T06:23:52;21.20;37.90
14705;DHT22;7442;50.840;3.396;2023-01-29T06:26:38;21.20;37.90
14705;DHT22;7442;50.840;3.396;2023-01-29T06:29:25;21.30;37.90
14705;DHT22;7442;50.840;3.396;2023-01-29T06:32:12;21.30;37.80
14705;DHT22;7442;50.840;3.396;2023-01-29T06:34:59;21.30;37.80
14705;DHT22;7442;50.840;3.396;2023-01-29T06:37:45;21.40;37.80
14705;DHT22;7442;50.840;3.396;2023-01-29T06:40:32;21.30;37.70
14705;DHT22;7442;50.840;3.396;2023-01-29T06:43:18;21.40;37.70
14705;DHT22;7442;50.840;3.396;2023-01-29T06:46:07;21.30;37.80
14705;DHT22;7442;50.840;3.396;2023-01-29T06:48:53;21.30;37.80
14705;DHT22;7442;50.840;3.396;2023-01-29T06:51:39;21.40;37.70
14705;DHT22;7442;50.840;3.396;2023-01-29T06:54:26;21.40;37.80
14705;DHT22;7442;50.840;3.396;2023-01-29T06:57:12;21.40;37.80
14705;DHT22;7442;50.840;3.396;2023-01-29T06:59:58;21.40;37.80
14705;DHT22;7442;50.840;3.396;2023-01-29T07:02:49;21.40;37.70
14705;DHT22;7442;50.840;3.396;2023-01-29T07:05:36;21.40;37.80
14705;DHT22;7442;50.840;3.396;2023-01-29T07:08:23;21.40;37.70
14705;DHT22;7442;50.840;3.396;2023-01-29T07:11:10;21.40;37.60
14705;DHT22;7442;50.840;3.396;2023-01-29T07:13:57;21.60;37.50
14705;DHT22;7442;50.840;3.396;2023-01-29T07:16:43;21.50;37.60
14705;DHT22;7442;50.840;3.396;2023-01-29T07:19:29;21.50;37.50
14705;DHT22;7442;50.840;3.396;2023-01-29T07:22:16;21.50;37.50
14705;DHT22;7442;50.840;3.396;2023-01-29T07:25:02;21.50;37.60
14705;DHT22;7442;50.840;3.396;2023-01-29T07:27:49;21.50;37.70
14705;DHT22;7442;50.840;3.396;2023-01-29T07:30:36;21.40;37.70
14705;DHT22;7442;50.840;3.396;2023-01-29T07:33:22;21.60;37.50
14705;DHT22;7442;50.840;3.396;2023-01-29T07:36:09;21.50;37.50
14705;DHT22;7442;50.840;3.396;2023-01-29T07:38:56;21.40;37.60
14705;DHT22;7442;50.840;3.396;2023-01-29T07:41:43;21.50;37.60
14705;DHT22;7442;50.840;3.396;2023-01-29T07:44:30;21.50;37.60
14705;DHT22;7442;50.840;3.396;2023-01-29T07:47:16;21.40;37.50
14705;DHT22;7442;50.840;3.396;2023-01-29T07:50:03;21.40;37.80
14705;DHT22;7442;50.840;3.396;2023-01-29T07:52:50;21.40;37.80
14705;DHT22;7442;50.840;3.396;2023-01-29T07:55:36;21.40;37.80
14705;DHT22;7442;50.840;3.396;2023-01-29T07:58:22;21.40;37.70
14705;DHT22;7442;50.840;3.396;2023-01-29T08:01:08;21.50;37.60
14705;DHT22;7442;50.840;3.396;2023-01-29T08:03:54;21.50;37.60
14705;DHT22;7442;50.840;3.396;2023-01-29T08:06:41;21.40;37.60
14705;DHT22;7442;50.840;3.396;2023-01-29T08:09:27;21.50;37.50
14705;DHT22;7442;50.840;3.396;2023-01-29T08:12:14;21.50;37.40
14705;DHT22;7442;50.840;3.396;2023-01-29T08:15:00;21.60;37.40
14705;DHT22;7442;50.840;3.396;2023-01-29T08:17:46;21.70;37.30
14705;DHT22;7442;50.840;3.396;2023-01-29T08:20:33;21.70;37.10
14705;DHT22;7442;50.840;3.396;2023-01-29T08:23:20;21.80;37.10
14705;DHT22;7442;50.840;3.396;2023-01-29T08:26:07;21.80;37.00
14705;DHT22;7442;50.840;3.396;2023-01-29T08:28:53;21.80;37.00
14705;DHT22;7442;50.840;3.396;2023-01-29T08:31:40;21.80;36.90
14705;DHT22;7442;50.840;3.396;2023-01-29T08:34:28;21.90;36.70
14705;DHT22;7442;50.840;3.396;2023-01-29T08:37:14;21.90;36.70
14705;DHT22;7442;50.840;3.396;2023-01-29T08:40:01;21.90;36.80
14705;DHT22;7442;50.840;3.396;2023-01-29T08:42:48;21.90;36.70
14705;DHT22;7442;50.840;3.396;2023-01-29T08:45:37;21.90;36.70
14705;DHT22;7442;50.840;3.396;2023-01-29T08:48:24;22.00;36.70
14705;DHT22;7442;50.840;3.396;2023-01-29T08:51:10;21.90;36.60
14705;DHT22;7442;50.840;3.396;2023-01-29T08:53:57;22.00;36.60
14705;DHT22;7442;50.840;3.396;2023-01-29T08:56:44;21.90;36.70
14705;DHT22;7442;50.840;3.396;2023-01-29T08:59:30;22.00;36.60
14705;DHT22;7442;50.840;3.396;2023-01-29T09:02:17;21.90;36.70
14705;DHT22;7442;50.840;3.396;2023-01-29T09:05:04;21.90;36.80
14705;DHT22;7442;50.840;3.396;2023-01-29T09:07:51;21.90;36.80
14705;DHT22;7442;50.840;3.396;2023-01-29T09:10:38;21.90;36.70
14705;DHT22;7442;50.840;3.396;2023-01-29T09:13:25;21.90;36.80
14705;DHT22;7442;50.840;3.396;2023-01-29T09:16:11;21.90;36.80
14705;DHT22;7442;50.840;3.396;2023-01-29T09:18:58;22.00;36.70
14705;DHT22;7442;50.840;3.396;2023-01-29T09:21:44;22.00;36.60
14705;DHT22;7442;50.840;3.396;2023-01-29T09:24:31;22.00;36.60
14705;DHT22;7442;50.840;3.396;2023-01-29T09:27:19;22.00;37.40
14705;DHT22;7442;50.840;3.396;2023-01-29T09:30:07;22.00;36.70
14705;DHT22;7442;50.840;3.396;2023-01-29T09:32:53;22.00;36.70
14705;DHT22;7442;50.840;3.396;2023-01-29T09:35:46;22.00;36.70
14705;DHT22;7442;50.840;3.396;2023-01-29T09:38:33;22.00;36.60
14705;DHT22;7442;50.840;3.396;2023-01-29T09:47:45;22.00;36.70
14705;DHT22;7442;50.840;3.396;2023-01-29T09:50:42;21.90;36.70
14705;DHT22;7442;50.840;3.396;2023-01-29T09:53:35;21.90;36.80
14705;DHT22;7442;50.840;3.396;2023-01-29T09:56:22;22.00;36.80
14705;DHT22;7442;50.840;3.396;2023-01-29T09:59:12;21.90;36.80
14705;DHT22;7442;50.840;3.396;2023-01-29T10:08:23;21.90;36.70
14705;DHT22;7442;50.840;3.396;2023-01-29T10:14:21;21.90;36.70
14705;DHT22;7442;50.840;3.396;2023-01-29T10:23:21;21.90;36.60
14705;DHT22;7442;50.840;3.396;2023-01-29T10:26:10;21.90;36.50
14705;DHT22;7442;50.840;3.396;2023-01-29T10:28:57;21.90;36.50
14705;DHT22;7442;50.840;3.396;2023-01-29T10:31:48;22.00;36.50
14705;DHT22;7442;50.840;3.396;2023-01-29T10:34:45;21.90;36.50
14705;DHT22;7442;50.840;3.396;2023-01-29T10:37:35;22.00;36.40
14705;DHT22;7442;50.840;3.396;2023-01-29T10:43:35;22.00;36.40
14705;DHT22;7442;50.840;3.396;2023-01-29T10:49:28;22.00;36.50
14705;DHT22;7442;50.840;3.396;2023-01-29T10:55:51;22.00;36.50
14705;DHT22;7442;50.840;3.396;2023-01-29T10:58:45;22.00;36.50
14705;DHT22;7442;50.840;3.396;2023-01-29T11:01:31;22.00;36.50
14705;DHT22;7442;50.840;3.396;2023-01-29T11:04:17;22.00;36.60
14705;DHT22;7442;50.840;3.396;2023-01-29T11:07:04;22.00;36.50
14705;DHT22;7442;50.840;3.396;2023-01-29T11:10:13;22.10;36.50
14705;DHT22;7442;50.840;3.396;2023-01-29T11:12:59;22.10;36.60
14705;DHT22;7442;50.840;3.396;2023-01-29T11:15:50;22.10;36.50
14705;DHT22;7442;50.840;3.396;2023-01-29T11:18:58;22.10;36.50
14705;DHT22;7442;50.840;3.396;2023-01-29T11:21:57;22.10;36.50
14705;DHT22;7442;50.840;3.396;2023-01-29T11:25:05;22.10;36.50
14705;DHT22;7442;50.840;3.396;2023-01-29T11:27:38;22.10;36.50
14705;DHT22;7442;50.840;3.396;2023-01-29T11:30:34;22.10;36.50
14705;DHT22;7442;50.840;3.396;2023-01-29T11:33:22;22.30;36.30
14705;DHT22;7442;50.840;3.396;2023-01-29T11:36:29;22.30;36.30
14705;DHT22;7442;50.840;3.396;2023-01-29T11:39:21;22.30;36.20
14705;DHT22;7442;50.840;3.396;2023-01-29T11:42:17;22.40;36.10
14705;DHT22;7442;50.840;3.396;2023-01-29T11:44:57;22.50;36.10
14705;DHT22;7442;50.840;3.396;2023-01-29T11:47:48;22.40;36.00
14705;DHT22;7442;50.840;3.396;2023-01-29T11:50:36;22.30;36.20
14705;DHT22;7442;50.840;3.396;2023-01-29T11:53:40;22.30;36.20
14705;DHT22;7442;50.840;3.396;2023-01-29T11:56:38;22.30;36.20
14705;DHT22;7442;50.840;3.396;2023-01-29T11:59:36;22.40;36.20
14705;DHT22;7442;50.840;3.396;2023-01-29T12:02:30;22.40;36.00
14705;DHT22;7442;50.840;3.396;2023-01-29T12:05:19;22.30;36.30
14705;DHT22;7442;50.840;3.396;2023-01-29T12:08:14;22.40;36.20
14705;DHT22;7442;50.840;3.396;2023-01-29T12:11:13;22.50;36.80
14705;DHT22;7442;50.840;3.396;2023-01-29T12:14:20;22.50;36.20
14705;DHT22;7442;50.840;3.396;2023-01-29T12:17:12;22.40;36.30
14705;DHT22;7442;50.840;3.396;2023-01-29T12:20:04;22.40;36.30
14705;DHT22;7442;50.840;3.396;2023-01-29T12:23:03;22.30;36.40
14705;DHT22;7442;50.840;3.396;2023-01-29T12:32:47;22.30;36.80
14705;DHT22;7442;50.840;3.396;2023-01-29T12:35:42;22.30;36.70
14705;DHT22;7442;50.840;3.396;2023-01-29T12:38:28;22.20;36.70
14705;DHT22;7442;50.840;3.396;2023-01-29T12:41:41;22.20;36.70
14705;DHT22;7442;50.840;3.396;2023-01-29T12:44:45;22.30;36.70
14705;DHT22;7442;50.840;3.396;2023-01-29T12:47:43;22.20;36.80
14705;DHT22;7442;50.840;3.396;2023-01-29T12:50:35;22.20;36.80
14705;DHT22;7442;50.840;3.396;2023-01-29T12:53:28;22.20;36.70
14705;DHT22;7442;50.840;3.396;2023-01-29T12:56:22;22.30;36.80
14705;DHT22;7442;50.840;3.396;2023-01-29T12:59:40;22.20;36.70
14705;DHT22;7442;50.840;3.396;2023-01-29T13:05:43;22.20;36.80
14705;DHT22;7442;50.840;3.396;2023-01-29T13:08:40;22.20;36.70
14705;DHT22;7442;50.840;3.396;2023-01-29T13:11:35;22.30;37.10
14705;DHT22;7442;50.840;3.396;2023-01-29T13:14:24;22.40;36.50
14705;DHT22;7442;50.840;3.396;2023-01-29T13:17:38;22.50;36.30
14705;DHT22;7442;50.840;3.396;2023-01-29T13:20:30;22.70;36.10
14705;DHT22;7442;50.840;3.396;2023-01-29T13:23:32;22.80;36.00
14705;DHT22;7442;50.840;3.396;2023-01-29T13:26:20;22.80;35.90
14705;DHT22;7442;50.840;3.396;2023-01-29T13:29:16;22.80;35.90
14705;DHT22;7442;50.840;3.396;2023-01-29T13:31:58;22.70;35.90
14705;DHT22;7442;50.840;3.396;2023-01-29T13:34:46;22.80;36.00
14705;DHT22;7442;50.840;3.396;2023-01-29T13:37:37;22.70;35.90
14705;DHT22;7442;50.840;3.396;2023-01-29T13:40:26;22.70;36.10
14705;DHT22;7442;50.840;3.396;2023-01-29T13:43:21;22.60;36.10
14705;DHT22;7442;50.840;3.396;2023-01-29T13:46:13;22.70;36.10
14705;DHT22;7442;50.840;3.396;2023-01-29T13:49:02;22.60;36.20
14705;DHT22;7442;50.840;3.396;2023-01-29T13:51:50;22.60;36.30
14705;DHT22;7442;50.840;3.396;2023-01-29T13:54:37;22.60;36.30
14705;DHT22;7442;50.840;3.396;2023-01-29T14:06:34;22.50;36.40
14705;DHT22;7442;50.840;3.396;2023-01-29T14:09:02;22.50;36.50
14705;DHT22;7442;50.840;3.396;2023-01-29T14:11:49;22.50;36.50
14705;DHT22;7442;50.840;3.396;2023-01-29T14:14:58;22.40;36.50
14705;DHT22;7442;50.840;3.396;2023-01-29T14:17:38;22.30;36.80
14705;DHT22;7442;50.840;3.396;2023-01-29T14:20:29;22.30;36.90
14705;DHT22;7442;50.840;3.396;2023-01-29T14:23:33;22.30;36.90
14705;DHT22;7442;50.840;3.396;2023-01-29T14:26:32;22.30;37.00
14705;DHT22;7442;50.840;3.396;2023-01-29T14:29:24;22.20;37.00
14705;DHT22;7442;50.840;3.396;2023-01-29T14:32:22;22.20;37.00
14705;DHT22;7442;50.840;3.396;2023-01-29T14:35:18;22.20;37.00
14705;DHT22;7442;50.840;3.396;2023-01-29T14:38:05;22.20;37.00
14705;DHT22;7442;50.840;3.396;2023-01-29T14:41:04;22.20;37.20
14705;DHT22;7442;50.840;3.396;2023-01-29T14:43:59;22.10;37.20
14705;DHT22;7442;50.840;3.396;2023-01-29T14:46:43;22.10;37.10
14705;DHT22;7442;50.840;3.396;2023-01-29T14:49:53;22.10;37.20
14705;DHT22;7442;50.840;3.396;2023-01-29T14:52:48;22.20;37.10
14705;DHT22;7442;50.840;3.396;2023-01-29T14:58:51;22.10;37.10
14705;DHT22;7442;50.840;3.396;2023-01-29T15:01:44;22.10;37.10
14705;DHT22;7442;50.840;3.396;2023-01-29T15:04:37;22.10;37.10
14705;DHT22;7442;50.840;3.396;2023-01-29T15:07:36;22.00;37.20
14705;DHT22;7442;50.840;3.396;2023-01-29T15:13:30;22.00;37.20
14705;DHT22;7442;50.840;3.396;2023-01-29T15:16:18;22.10;37.30
14705;DHT22;7442;50.840;3.396;2023-01-29T15:19:20;21.90;37.20
14705;DHT22;7442;50.840;3.396;2023-01-29T15:22:10;22.10;37.30
14705;DHT22;7442;50.840;3.396;2023-01-29T15:25:05;22.00;37.10
14705;DHT22;7442;50.840;3.396;2023-01-29T15:27:50;22.00;37.10
14705;DHT22;7442;50.840;3.396;2023-01-29T15:30:38;21.90;37.20
14705;DHT22;7442;50.840;3.396;2023-01-29T15:33:27;21.90;37.30
14705;DHT22;7442;50.840;3.396;2023-01-29T15:36:27;21.90;37.30
14705;DHT22;7442;50.840;3.396;2023-01-29T15:39:23;21.90;37.30
14705;DHT22;7442;50.840;3.396;2023-01-29T15:42:14;21.80;37.30
14705;DHT22;7442;50.840;3.396;2023-01-29T15:45:02;21.90;37.30
14705;DHT22;7442;50.840;3.396;2023-01-29T15:47:50;21.90;37.20
14705;DHT22;7442;50.840;3.396;2023-01-29T15:50:44;22.00;37.30
14705;DHT22;7442;50.840;3.396;2023-01-29T15:53:34;21.90;37.20
14705;DHT22;7442;50.840;3.396;2023-01-29T15:56:26;21.80;37.20
14705;DHT22;7442;50.840;3.396;2023-01-29T15:59:24;21.80;37.20
14705;DHT22;7442;50.840;3.396;2023-01-29T16:02:39;21.80;37.20
14705;DHT22;7442;50.840;3.396;2023-01-29T16:05:28;21.80;37.10
14705;DHT22;7442;50.840;3.396;2023-01-29T16:08:18;21.80;37.20
14705;DHT22;7442;50.840;3.396;2023-01-29T16:11:06;21.80;37.30
14705;DHT22;7442;50.840;3.396;2023-01-29T16:13:53;21.80;37.30
14705;DHT22;7442;50.840;3.396;2023-01-29T16:16:40;21.80;37.10
14705;DHT22;7442;50.840;3.396;2023-01-29T16:19:29;21.80;37.10
14705;DHT22;7442;50.840;3.396;2023-01-29T16:22:15;21.80;37.10
14705;DHT22;7442;50.840;3.396;2023-01-29T16:25:03;21.70;37.20
14705;DHT22;7442;50.840;3.396;2023-01-29T16:27:50;21.70;37.30
14705;DHT22;7442;50.840;3.396;2023-01-29T16:30:37;21.70;37.20
14705;DHT22;7442;50.840;3.396;2023-01-29T16:33:32;21.70;37.30
14705;DHT22;7442;50.840;3.396;2023-01-29T16:36:25;21.60;37.40
14705;DHT22;7442;50.840;3.396;2023-01-29T16:39:17;21.60;37.40
14705;DHT22;7442;50.840;3.396;2023-01-29T16:45:27;21.50;37.60
14705;DHT22;7442;50.840;3.396;2023-01-29T16:48:26;21.50;37.60
14705;DHT22;7442;50.840;3.396;2023-01-29T16:51:25;21.50;37.70
14705;DHT22;7442;50.840;3.396;2023-01-29T16:54:13;21.40;37.60
14705;DHT22;7442;50.840;3.396;2023-01-29T16:57:15;21.50;37.60
14705;DHT22;7442;50.840;3.396;2023-01-29T17:00:05;21.50;37.80
14705;DHT22;7442;50.840;3.396;2023-01-29T17:03:01;21.40;37.70
14705;DHT22;7442;50.840;3.396;2023-01-29T17:05:43;21.30;37.80
14705;DHT22;7442;50.840;3.396;2023-01-29T17:08:34;21.40;37.80
14705;DHT22;7442;50.840;3.396;2023-01-29T17:11:31;21.40;37.60
14705;DHT22;7442;50.840;3.396;2023-01-29T17:14:18;21.30;37.80
14705;DHT22;7442;50.840;3.396;2023-01-29T17:17:12;21.30;37.80
14705;DHT22;7442;50.840;3.396;2023-01-29T17:19:54;21.40;38.40
14705;DHT22;7442;50.840;3.396;2023-01-29T17:22:40;21.30;37.70
14705;DHT22;7442;50.840;3.396;2023-01-29T17:25:28;21.30;37.80
14705;DHT22;7442;50.840;3.396;2023-01-29T17:28:15;21.30;37.80
14705;DHT22;7442;50.840;3.396;2023-01-29T17:31:02;21.30;37.80
14705;DHT22;7442;50.840;3.396;2023-01-29T17:33:48;21.30;37.80
14705;DHT22;7442;50.840;3.396;2023-01-29T17:36:35;21.30;37.80
14705;DHT22;7442;50.840;3.396;2023-01-29T17:39:22;21.30;37.80
14705;DHT22;7442;50.840;3.396;2023-01-29T17:42:12;21.20;37.80
14705;DHT22;7442;50.840;3.396;2023-01-29T17:44:59;21.20;37.90
14705;DHT22;7442;50.840;3.396;2023-01-29T17:47:45;21.20;37.90
14705;DHT22;7442;50.840;3.396;2023-01-29T17:50:33;21.20;37.90
14705;DHT22;7442;50.840;3.396;2023-01-29T17:53:21;21.20;37.80
14705;DHT22;7442;50.840;3.396;2023-01-29T17:56:24;21.20;37.90
14705;DHT22;7442;50.840;3.396;2023-01-29T17:59:21;21.20;37.90
14705;DHT22;7442;50.840;3.396;2023-01-29T18:02:07;21.20;37.90
14705;DHT22;7442;50.840;3.396;2023-01-29T18:04:53;21.20;37.80
14705;DHT22;7442;50.840;3.396;2023-01-29T18:07:42;21.20;37.90
14705;DHT22;7442;50.840;3.396;2023-01-29T18:10:29;21.20;37.90
14705;DHT22;7442;50.840;3.396;2023-01-29T18:13:15;21.10;37.90
14705;DHT22;7442;50.840;3.396;2023-01-29T18:16:02;21.20;38.00
14705;DHT22;7442;50.840;3.396;2023-01-29T18:18:50;21.20;38.00
14705;DHT22;7442;50.840;3.396;2023-01-29T18:21:37;21.10;38.10
14705;DHT22;7442;50.840;3.396;2023-01-29T18:24:23;21.10;38.70
14705;DHT22;7442;50.840;3.396;2023-01-29T18:27:11;21.10;38.00
14705;DHT22;7442;50.840;3.396;2023-01-29T18:29:59;21.10;38.00
14705;DHT22;7442;50.840;3.396;2023-01-29T18:32:45;21.10;38.00
14705;DHT22;7442;50.840;3.396;2023-01-29T18:35:32;21.10;38.10
14705;DHT22;7442;50.840;3.396;2023-01-29T18:38:19;21.10;38.10
14705;DHT22;7442;50.840;3.396;2023-01-29T18:41:07;21.10;38.00
14705;DHT22;7442;50.840;3.396;2023-01-29T18:43:57;21.10;38.00
14705;DHT22;7442;50.840;3.396;2023-01-29T18:46:43;21.10;38.00
14705;DHT22;7442;50.840;3.396;2023-01-29T18:49:30;21.10;38.10
14705;DHT22;7442;50.840;3.396;2023-01-29T18:52:17;21.10;38.20
14705;DHT22;7442;50.840;3.396;2023-01-29T18:55:03;21.10;38.10
14705;DHT22;7442;50.840;3.396;2023-01-29T18:57:53;21.00;38.10
14705;DHT22;7442;50.840;3.396;2023-01-29T19:00:40;21.00;38.10
14705;DHT22;7442;50.840;3.396;2023-01-29T19:03:26;21.00;38.90
14705;DHT22;7442;50.840;3.396;2023-01-29T19:06:14;21.10;38.10
14705;DHT22;7442;50.840;3.396;2023-01-29T19:09:00;21.00;38.20
14705;DHT22;7442;50.840;3.396;2023-01-29T19:11:46;21.00;38.30
14705;DHT22;7442;50.840;3.396;2023-01-29T19:14:33;21.10;38.20
14705;DHT22;7442;50.840;3.396;2023-01-29T19:17:20;20.90;38.30
14705;DHT22;7442;50.840;3.396;2023-01-29T19:20:09;20.90;38.20
14705;DHT22;7442;50.840;3.396;2023-01-29T19:22:54;21.00;38.20
14705;DHT22;7442;50.840;3.396;2023-01-29T19:25:41;21.00;38.20
14705;DHT22;7442;50.840;3.396;2023-01-29T19:28:27;21.00;38.20
14705;DHT22;7442;50.840;3.396;2023-01-29T19:31:14;20.90;38.20
14705;DHT22;7442;50.840;3.396;2023-01-29T19:34:01;21.00;38.20
14705;DHT22;7442;50.840;3.396;2023-01-29T19:36:47;21.00;38.20
14705;DHT22;7442;50.840;3.396;2023-01-29T19:39:33;21.00;38.20
14705;DHT22;7442;50.840;3.396;2023-01-29T19:42:24;21.00;38.10